createdAt,value
2023-01-27T00:04:26.719Z,65.5
2023-01-27T00:10:03.160Z,65.3
2023-01-27T00:15:38.462Z,65.3
2023-01-27T00:21:14.042Z,65.5
2023-01-27T00:26:48.948Z,65.6
2023-01-27T00:32:24.498Z,66
2023-01-27T00:37:59.840Z,66.1
2023-01-27T00:43:36.725Z,66.1
2023-01-27T00:49:11.871Z,65.9
2023-01-27T00:55:01.520Z,65.6
2023-01-27T01:00:45.662Z,66
2023-01-27T01:06:32.332Z,66.2
2023-01-27T01:12:10.738Z,66.2
2023-01-27T01:17:45.994Z,66.6
2023-01-27T01:23:22.413Z,67.1
2023-01-27T01:28:57.806Z,67
2023-01-27T01:34:34.137Z,66.5
2023-01-27T01:40:35.482Z,66.4
2023-01-27T01:46:13.240Z,67.2
2023-01-27T01:51:50.752Z,67.2
2023-01-27T01:57:27.164Z,67.2
2023-01-27T02:03:02.629Z,66.9
2023-01-27T02:08:37.746Z,67
2023-01-27T02:14:37.850Z,67.1
2023-01-27T02:20:34.167Z,67
2023-01-27T02:27:00.861Z,66.2
2023-01-27T02:32:56.967Z,65.7
2023-01-27T02:38:31.919Z,65.9
2023-01-27T02:44:07.312Z,66.2
2023-01-27T02:49:42.479Z,66.5
2023-01-27T02:55:27.663Z,66.3
2023-01-27T03:01:04.543Z,66.4
2023-01-27T03:06:41.624Z,66.5
2023-01-27T03:12:17.141Z,66.4
2023-01-27T03:17:53.572Z,66.9
2023-01-27T03:23:29.348Z,66.8
2023-01-27T03:29:04.869Z,66.7
2023-01-27T03:34:42.680Z,66.7
2023-01-27T03:40:17.746Z,66.4
2023-01-27T03:45:54.377Z,66.7
2023-01-27T03:51:49.612Z,66.8
2023-01-27T03:57:25.181Z,67.1
2023-01-27T04:03:01.979Z,67.1
2023-01-27T04:08:38.235Z,67.2
2023-01-27T04:14:15.100Z,67.5
2023-01-27T04:20:03.556Z,67.5
2023-01-27T04:25:38.711Z,67.5
2023-01-27T04:31:15.094Z,67.5
2023-01-27T04:36:52.202Z,67.9
2023-01-27T04:42:34.416Z,67.7
2023-01-27T04:48:12.749Z,67.7
2023-01-27T04:53:51.912Z,68.1
2023-01-27T04:59:48.248Z,68.3
2023-01-27T05:05:27.015Z,67.7
2023-01-27T05:11:05.346Z,67.8
2023-01-27T05:16:40.507Z,67.8
2023-01-27T05:22:16.605Z,67.9
2023-01-27T05:27:51.543Z,68.3
2023-01-27T05:33:31.211Z,68.4
2023-01-27T05:39:09.271Z,68.4
2023-01-27T05:44:44.724Z,68.3
2023-01-27T05:50:20.999Z,68.3
2023-01-27T05:55:56.465Z,68.5
2023-01-27T06:01:31.966Z,68.2
2023-01-27T06:07:08.148Z,68.2
2023-01-27T06:12:43.216Z,68.2
2023-01-27T06:18:18.241Z,68.3
2023-01-27T06:23:53.709Z,67.9
2023-01-27T06:29:34.725Z,67.8
2023-01-27T06:35:16.394Z,67.4
2023-01-27T06:40:55.236Z,67.5
2023-01-27T06:46:31.397Z,67.4
2023-01-27T06:52:07.661Z,67.5
2023-01-27T06:57:45.771Z,67.2
2023-01-27T07:03:26.956Z,67.1
2023-01-27T07:09:03.102Z,66.6
2023-01-27T07:14:38.491Z,66.4
2023-01-27T07:20:19.529Z,66.8
2023-01-27T07:26:25.452Z,67.3
2023-01-27T07:32:12.195Z,67.1
2023-01-27T07:37:54.499Z,66.9
2023-01-27T07:43:37.487Z,67
2023-01-27T07:49:12.411Z,67.3
2023-01-27T07:54:48.535Z,67.2
2023-01-27T08:00:24.301Z,67.3
2023-01-27T08:06:02.097Z,67.3
2023-01-27T08:11:37.726Z,67.3
2023-01-27T08:17:59.286Z,67.3
2023-01-27T08:23:35.644Z,67.5
2023-01-27T08:29:19.908Z,67
2023-01-27T08:35:04.234Z,73.9
2023-01-27T08:40:42.903Z,75.7
2023-01-27T08:46:18.463Z,75.2
2023-01-27T08:52:15.360Z,74.8
2023-01-27T08:57:52.050Z,75.6
2023-01-27T09:03:27.277Z,74
2023-01-27T09:09:02.742Z,72.9
2023-01-27T09:14:37.746Z,71.8
2023-01-27T09:20:22.098Z,74.5
2023-01-27T09:26:04.695Z,74.8
2023-01-27T09:31:41.252Z,74.4
2023-01-27T09:37:18.972Z,72.9
2023-01-27T09:42:55.475Z,71.6
2023-01-27T09:48:31.856Z,71.8
2023-01-27T09:54:09.201Z,72.6
2023-01-27T10:00:05.417Z,72
2023-01-27T10:05:40.381Z,72.9
2023-01-27T10:11:19.510Z,70.9
2023-01-27T10:17:04.830Z,69.1
2023-01-27T10:22:46.130Z,68.5
2023-01-27T10:28:27.687Z,67.7
2023-01-27T10:34:03.513Z,69.2
2023-01-27T10:39:41.451Z,70
2023-01-27T10:45:19.690Z,69.7
2023-01-27T10:51:01.112Z,70.2
2023-01-27T10:56:36.057Z,68.6
2023-01-27T11:02:11.354Z,70.3
2023-01-27T11:07:46.784Z,70.4
2023-01-27T11:13:31.593Z,68.9
2023-01-27T11:19:32.145Z,68.8
2023-01-27T11:25:25.604Z,69.6
2023-01-27T11:31:08.581Z,68
2023-01-27T11:37:27.171Z,69.5
2023-01-27T11:43:06.030Z,68.8
2023-01-27T11:48:43.475Z,70.5
2023-01-27T11:54:18.904Z,69.8
2023-01-27T11:59:55.279Z,68.4
2023-01-27T12:05:32.960Z,70.5
2023-01-27T12:11:11.099Z,68.4
2023-01-27T12:16:47.681Z,69.7
2023-01-27T12:22:23.048Z,68.9
2023-01-27T12:27:58.337Z,69.8
2023-01-27T12:33:33.950Z,70.1
2023-01-27T12:39:09.342Z,70.5
2023-01-27T12:44:44.480Z,71.1
2023-01-27T12:50:20.065Z,71.5
2023-01-27T12:56:12.750Z,71.1
2023-01-27T13:01:47.911Z,72.5
2023-01-27T13:07:25.471Z,72.2
2023-01-27T13:13:09.592Z,71.8
2023-01-27T13:18:45.029Z,72.6
2023-01-27T13:24:24.666Z,73.2
2023-01-27T13:30:00.653Z,75.1
2023-01-27T13:35:37.512Z,74.1
2023-01-27T13:41:15.154Z,74.3
2023-01-27T13:46:55.224Z,73.9
2023-01-27T13:52:31.424Z,73.1
2023-01-27T13:58:14.198Z,73.1
2023-01-27T14:04:10.888Z,72.7
2023-01-27T14:10:09.111Z,74.1
2023-01-27T14:15:55.619Z,74.1
2023-01-27T14:21:58.137Z,74
2023-01-27T14:27:34.785Z,74.6
2023-01-27T14:33:13.382Z,75.8
2023-01-27T14:38:50.254Z,75.5
2023-01-27T14:44:55.525Z,76.3
2023-01-27T14:50:44.607Z,77.7
2023-01-27T14:56:22.287Z,77.7
2023-01-27T15:02:29.373Z,77.2
2023-01-27T15:08:10.014Z,78.9
2023-01-27T15:13:58.444Z,77
2023-01-27T15:19:39.439Z,78.4
2023-01-27T15:25:21.651Z,78.8
2023-01-27T15:31:30.053Z,78.8
2023-01-27T15:38:03.521Z,79.8
2023-01-27T15:43:43.807Z,79.2
2023-01-27T15:49:19.926Z,79.9
2023-01-27T15:54:55.440Z,80.5
2023-01-27T16:00:31.298Z,80.9
2023-01-27T16:06:06.387Z,81
2023-01-27T16:11:42.502Z,81.2
2023-01-27T16:17:18.220Z,81.2
2023-01-27T16:22:58.288Z,81.4
2023-01-27T16:28:36.606Z,80.9
2023-01-27T16:34:12.238Z,80.9
2023-01-27T16:39:46.956Z,81.8
2023-01-27T16:45:22.355Z,81.5
2023-01-27T16:51:01.175Z,81.9
2023-01-27T16:56:39.450Z,81.9
2023-01-27T17:02:14.810Z,82.9
2023-01-27T17:07:52.324Z,83
2023-01-27T17:13:28.336Z,82.9
2023-01-27T17:19:03.431Z,83.3
2023-01-27T17:24:41.311Z,82.8
2023-01-27T17:30:17.846Z,83
2023-01-27T17:35:56.869Z,82.6
2023-01-27T17:41:33.925Z,83.1
2023-01-27T17:47:10.430Z,83.1
2023-01-27T17:52:55.252Z,80.6
2023-01-27T17:58:30.978Z,78.1
2023-01-27T18:04:06.650Z,77.1
2023-01-27T18:10:00.453Z,76.7
2023-01-27T18:15:52.509Z,76.3
2023-01-27T18:21:55.225Z,75.9
2023-01-27T18:27:33.548Z,75.6
2023-01-27T18:33:17.829Z,75.2
2023-01-27T18:39:05.920Z,74.8
2023-01-27T18:45:00.569Z,74.7
2023-01-27T18:50:42.075Z,74.6
2023-01-27T18:56:23.303Z,74.4
2023-01-27T19:02:44.037Z,74.1
2023-01-27T19:08:19.275Z,74.2
2023-01-27T19:14:03.538Z,74.1
2023-01-27T19:19:44.220Z,74.1
2023-01-27T19:25:29.205Z,74.1
2023-01-27T19:31:05.031Z,74
2023-01-27T19:36:41.579Z,73.3
2023-01-27T19:42:18.042Z,73.3
2023-01-27T19:47:58.915Z,73.4
2023-01-27T19:53:34.584Z,73.3
2023-01-27T19:59:11.586Z,73.6
2023-01-27T20:04:49.201Z,73.3
2023-01-27T20:10:24.717Z,73.5
2023-01-27T20:15:59.784Z,73.6
2023-01-27T20:21:35.797Z,73.5
2023-01-27T20:27:10.983Z,73.6
2023-01-27T20:33:29.489Z,73.8
2023-01-27T20:39:09.907Z,73.6
2023-01-27T20:45:09.305Z,73.6
2023-01-27T20:51:02.346Z,73.4
2023-01-27T20:57:15.727Z,73.8
2023-01-27T21:02:51.930Z,73.6
2023-01-27T21:08:28.255Z,73.7
2023-01-27T21:14:15.366Z,73.8
2023-01-27T21:19:50.403Z,73.7
2023-01-27T21:25:30.117Z,73.5
2023-01-27T21:31:05.685Z,73.5
2023-01-27T21:36:43.238Z,73.5
2023-01-27T21:42:29.465Z,73.4
2023-01-27T21:48:36.444Z,73.3
2023-01-27T21:54:09.456Z,73.2
2023-01-27T21:59:51.381Z,73.2
2023-01-27T22:05:37.782Z,73.1
2023-01-27T22:11:13.073Z,73.1
2023-01-27T22:16:48.795Z,73.2
2023-01-27T22:22:24.285Z,73.1
2023-01-27T22:28:03.467Z,73.1
2023-01-27T22:33:39.227Z,73.1
2023-01-27T22:39:14.123Z,73.2
2023-01-27T22:45:43.733Z,73.5
2023-01-27T22:51:19.915Z,73.3
2023-01-27T22:57:16.029Z,73.3
2023-01-27T23:02:52.764Z,73.3
2023-01-27T23:08:28.700Z,73.5
2023-01-27T23:14:15.587Z,73.7
2023-01-27T23:19:59.776Z,73.5
2023-01-27T23:25:41.351Z,73.6
2023-01-27T23:31:38.764Z,73.6
2023-01-27T23:37:33.450Z,73.7
2023-01-27T23:43:08.830Z,73.6
2023-01-27T23:49:06.305Z,73.4
2023-01-27T23:54:39.138Z,73.6
